Time;durP1;ratioP1;P1;durP2;ratioP2;P2;SDS_P1;SDS_P2;PMS_P1;PMS_P2;Temp;Humidity;BMP_temperature;BMP_pressure;BME280_temperature;BME280_humidity;BME280_pressure;Samples;Min_cycle;Max_cycle;Signal;HPM_P1;HPM_P2
2024/01/01 00:03:07;;;;;;;2.40;1.00;;;23.10;55.20;;;;;;4958081;28;87855;-61
2024/01/01 00:05:33;;;;;;;2.90;1.10;;;23.00;55.20;;;;;;4951356;28;86812;-60
2024/01/01 00:08:00;;;;;;;1.40;0.57;;;23.00;55.30;;;;;;4960472;28;89958;-60
2024/01/01 00:10:27;;;;;;;2.75;0.73;;;23.00;55.40;;;;;;4976415;28;89278;-61
2024/01/01 00:12:52;;;;;;;1.50;0.80;;;23.00;55.30;;;;;;4990161;28;88712;-60
2024/01/01 00:15:18;;;;;;;2.47;0.80;;;23.00;55.30;;;;;;4972309;28;87846;-61
2024/01/01 00:17:44;;;;;;;1.98;0.70;;;22.90;55.40;;;;;;4974371;28;88675;-61
2024/01/01 00:20:11;;;;;;;1.20;0.63;;;22.90;55.30;;;;;;4971128;28;88427;-60
2024/01/01 00:22:36;;;;;;;1.45;0.70;;;22.90;55.40;;;;;;4973597;28;87199;-60
2024/01/01 00:25:02;;;;;;;1.13;0.55;;;22.80;55.40;;;;;;4977588;28;86944;-60
2024/01/01 00:27:28;;;;;;;0.65;0.60;;;22.80;55.40;;;;;;4969085;28;89715;-61
2024/01/01 00:29:54;;;;;;;0.88;0.77;;;22.80;55.40;;;;;;4974659;28;88566;-61
2024/01/01 00:32:20;;;;;;;1.73;0.90;;;22.80;55.40;;;;;;4975467;28;87301;-61
2024/01/01 00:34:46;;;;;;;1.85;0.98;;;22.80;55.40;;;;;;4991651;28;90354;-61
2024/01/01 00:37:12;;;;;;;1.30;0.68;;;22.70;55.40;;;;;;4996768;28;89757;-60
2024/01/01 00:39:38;;;;;;;1.73;0.80;;;22.70;55.60;;;;;;4972143;28;88735;-61
2024/01/01 00:42:04;;;;;;;1.65;0.52;;;22.70;55.50;;;;;;4992523;28;87544;-61
2024/01/01 00:44:32;;;;;;;2.58;0.90;;;22.70;55.60;;;;;;4974230;28;87658;-60
2024/01/01 00:46:58;;;;;;;1.98;0.90;;;22.70;55.50;;;;;;4975104;28;87829;-61
2024/01/01 00:49:25;;;;;;;1.50;0.88;;;22.60;55.70;;;;;;4980111;28;88560;-61
2024/01/01 00:51:51;;;;;;;1.67;1.00;;;22.60;55.50;;;;;;4973655;28;87370;-61
2024/01/01 00:54:16;;;;;;;1.95;0.63;;;22.60;55.60;;;;;;4975744;28;89247;-60
2024/01/01 00:56:42;;;;;;;1.05;0.50;;;22.50;55.50;;;;;;4969532;28;88594;-60
2024/01/01 00:59:08;;;;;;;1.08;0.60;;;22.50;55.60;;;;;;4978100;28;87916;-61
2024/01/01 01:01:34;;;;;;;1.73;0.90;;;22.50;55.60;;;;;;4987095;28;88522;-61
2024/01/01 01:04:00;;;;;;;1.00;0.65;;;22.50;55.60;;;;;;4974990;28;88701;-61
2024/01/01 01:06:26;;;;;;;0.68;0.60;;;22.50;55.40;;;;;;4975744;28;90815;-60
2024/01/01 01:08:53;;;;;;;2.10;0.50;;;22.40;55.50;;;;;;4974157;28;88173;-61
2024/01/01 01:11:19;;;;;;;1.02;0.50;;;22.40;55.70;;;;;;4973818;28;86936;-61
2024/01/01 01:13:44;;;;;;;2.38;0.90;;;22.40;55.60;;;;;;4988077;28;87658;-61
2024/01/01 01:16:10;;;;;;;1.70;0.60;;;22.40;55.80;;;;;;4978180;28;87719;-61
2024/01/01 01:18:36;;;;;;;1.10;0.77;;;22.30;55.50;;;;;;4977731;28;88380;-60
2024/01/01 01:21:02;;;;;;;1.08;0.60;;;22.30;55.70;;;;;;4977490;28;87480;-61
2024/01/01 01:23:28;;;;;;;2.22;0.80;;;22.30;55.60;;;;;;4977830;28;87197;-60
2024/01/01 01:25:54;;;;;;;3.03;0.60;;;22.30;56.30;;;;;;4972224;28;89101;-60
2024/01/01 01:28:24;;;;;;;1.27;0.68;;;22.30;55.70;;;;;;4992636;28;88333;-61
2024/01/01 01:30:50;;;;;;;1.35;0.70;;;22.20;55.80;;;;;;4974700;28;87689;-61
2024/01/01 01:33:17;;;;;;;2.50;0.70;;;22.20;55.60;;;;;;4974585;28;87193;-61
2024/01/01 01:35:44;;;;;;;1.13;0.75;;;22.20;55.60;;;;;;4974431;28;90126;-61
2024/01/01 01:38:10;;;;;;;1.25;0.60;;;22.20;55.70;;;;;;4991147;28;88873;-61
2024/01/01 01:40:35;;;;;;;2.40;0.75;;;22.20;55.70;;;;;;4976746;28;88064;-61
2024/01/01 01:43:01;;;;;;;2.00;0.70;;;22.20;55.80;;;;;;4979807;28;86792;-61
2024/01/01 01:45:27;;;;;;;1.13;0.63;;;22.20;55.80;;;;;;4994711;28;88025;-61
2024/01/01 01:47:53;;;;;;;2.40;0.60;;;22.10;55.70;;;;;;4978846;28;87638;-61
2024/01/01 01:50:20;;;;;;;2.22;0.95;;;22.10;56.50;;;;;;4976455;28;89257;-61
2024/01/01 01:52:47;;;;;;;1.20;0.60;;;22.10;55.70;;;;;;4976520;28;87534;-62
2024/01/01 01:55:14;;;;;;;2.03;0.60;;;22.10;55.70;;;;;;4980530;28;88898;-60
2024/01/01 01:57:43;;;;;;;1.30;0.73;;;22.10;55.70;;;;;;4973962;28;88653;-62
2024/01/01 02:00:10;;;;;;;1.13;0.68;;;22.10;55.80;;;;;;4981153;28;87331;-61
2024/01/01 02:02:36;;;;;;;2.15;0.98;;;22.00;55.70;;;;;;4975143;28;90364;-61
2024/01/01 02:05:04;;;;;;;1.77;0.93;;;22.00;55.70;;;;;;4979336;28;88378;-60
2024/01/01 02:07:31;;;;;;;1.45;0.50;;;22.00;55.80;;;;;;4974314;28;90100;-61
2024/01/01 02:09:57;;;;;;;1.00;0.68;;;22.00;55.80;;;;;;4981842;28;87591;-60
2024/01/01 02:12:23;;;;;;;2.03;0.80;;;22.00;55.80;;;;;;4977423;28;88397;-61
2024/01/01 02:14:49;;;;;;;1.10;0.60;;;22.00;55.80;;;;;;4974800;28;89230;-61
2024/01/01 02:17:17;;;;;;;1.67;0.57;;;21.90;55.80;;;;;;4989717;28;90629;-60
2024/01/01 02:19:43;;;;;;;0.82;0.50;;;21.90;55.60;;;;;;4995279;28;87502;-60
2024/01/01 02:22:09;;;;;;;1.38;0.60;;;21.90;55.60;;;;;;4977166;28;88211;-60
2024/01/01 02:24:35;;;;;;;1.83;0.93;;;21.90;55.80;;;;;;4973951;28;88484;-61
2024/01/01 02:27:01;;;;;;;1.80;0.55;;;21.90;55.80;;;;;;4976057;28;87679;-62
2024/01/01 02:29:27;;;;;;;1.30;0.63;;;21.90;55.80;;;;;;4977341;28;87298;-61
2024/01/01 02:31:52;;;;;;;0.82;0.63;;;21.90;55.90;;;;;;4972501;28;88462;-61
2024/01/01 02:34:18;;;;;;;1.90;0.70;;;21.90;55.70;;;;;;4976306;28;90529;-61
2024/01/01 02:36:44;;;;;;;0.95;0.52;;;21.80;55.70;;;;;;4974815;28;87883;-61
2024/01/01 02:39:11;;;;;;;1.52;0.80;;;21.80;55.70;;;;;;4975435;28;88148;-61
2024/01/01 02:41:37;;;;;;;1.35;0.77;;;21.80;55.80;;;;;;4972983;28;87664;-61
2024/01/01 02:44:03;;;;;;;2.38;0.85;;;21.80;55.70;;;;;;4982240;28;88356;-61
2024/01/01 02:46:29;;;;;;;0.90;0.57;;;21.80;56.40;;;;;;4975251;28;88026;-60
2024/01/01 02:48:55;;;;;;;1.42;1.00;;;21.80;55.90;;;;;;4975670;28;87710;-61
2024/01/01 02:51:21;;;;;;;0.85;0.55;;;21.80;55.90;;;;;;4968752;28;88390;-60
2024/01/01 02:53:47;;;;;;;0.82;0.70;;;21.80;55.90;;;;;;4979876;28;88325;-61
2024/01/01 02:56:20;;;;;;;1.30;0.60;;;21.80;55.80;;;;;;4977494;28;87710;-61
2024/01/01 02:58:47;;;;;;;0.70;0.60;;;21.80;55.90;;;;;;4978121;28;87720;-61
2024/01/01 03:01:15;;;;;;;1.05;0.57;;;21.70;55.80;;;;;;4974877;28;87640;-60
2024/01/01 03:03:40;;;;;;;1.08;0.60;;;21.70;55.70;;;;;;4972713;28;90891;-61
2024/01/01 03:06:07;;;;;;;1.50;0.70;;;21.70;55.80;;;;;;4969018;28;89639;-60
2024/01/01 03:08:36;;;;;;;1.05;0.77;;;21.70;55.80;;;;;;4977763;28;87542;-60
2024/01/01 03:11:06;;;;;;;0.73;0.52;;;21.70;55.80;;;;;;4972780;28;87544;-61
2024/01/01 03:13:32;;;;;;;1.83;0.80;;;21.70;55.80;;;;;;4976665;28;88555;-61
2024/01/01 03:16:01;;;;;;;0.75;0.70;;;21.70;55.80;;;;;;4976722;28;87073;-61
2024/01/01 03:18:27;;;;;;;1.42;0.70;;;21.60;55.70;;;;;;4994077;28;87575;-61
2024/01/01 03:20:52;;;;;;;1.27;0.65;;;21.60;55.80;;;;;;4979456;28;87033;-61
2024/01/01 03:23:18;;;;;;;2.08;0.70;;;21.60;55.70;;;;;;4977287;28;88485;-60
2024/01/01 03:25:44;;;;;;;0.73;0.43;;;21.60;55.80;;;;;;4979502;28;87892;-62
2024/01/01 03:28:10;;;;;;;0.65;0.40;;;21.60;55.80;;;;;;4978806;28;88105;-61
2024/01/01 03:30:37;;;;;;;0.93;0.60;;;21.60;55.80;;;;;;4972172;28;89471;-61
2024/01/01 03:33:04;;;;;;;1.95;0.82;;;21.60;55.70;;;;;;4976138;28;88683;-60
2024/01/01 03:35:31;;;;;;;0.90;0.60;;;21.60;55.70;;;;;;4977314;28;88517;-61
2024/01/01 03:37:58;;;;;;;0.75;0.63;;;21.60;55.80;;;;;;4976313;28;87636;-61
2024/01/01 03:40:51;;;;;;;1.08;0.70;;;21.60;55.70;;;;;;4994238;28;88740;-61
2024/01/01 03:43:17;;;;;;;1.08;0.60;;;21.50;55.70;;;;;;4978888;28;88087;-60
2024/01/01 03:46:02;;;;;;;1.00;0.60;;;21.50;55.70;;;;;;4977548;28;87967;-61
2024/01/01 03:48:27;;;;;;;1.77;0.60;;;21.50;55.70;;;;;;4975141;28;87763;-61
2024/01/01 03:50:54;;;;;;;0.55;0.47;;;21.50;55.70;;;;;;4969700;28;87839;-61
2024/01/01 03:53:20;;;;;;;1.63;0.68;;;21.50;55.70;;;;;;4968938;28;89333;-61
2024/01/01 03:55:46;;;;;;;1.35;0.70;;;21.50;55.80;;;;;;4975216;28;89757;-61
2024/01/01 03:58:12;;;;;;;1.27;0.70;;;21.50;55.70;;;;;;4979001;28;87076;-60
2024/01/01 04:00:38;;;;;;;1.63;0.80;;;21.50;55.70;;;;;;4978249;28;87973;-60
2024/01/01 04:03:03;;;;;;;2.65;0.73;;;21.50;55.70;;;;;;4971953;28;89864;-60
2024/01/01 04:05:29;;;;;;;1.33;0.60;;;21.40;55.60;;;;;;4976403;28;87465;-61
2024/01/01 04:07:55;;;;;;;1.45;0.70;;;21.50;55.80;;;;;;4978714;28;87721;-61
2024/01/01 04:10:21;;;;;;;1.20;0.70;;;21.40;55.70;;;;;;4978020;28;87317;-61
2024/01/01 04:12:47;;;;;;;3.58;1.73;;;21.40;55.70;;;;;;4992577;28;89809;-60
2024/01/01 04:15:13;;;;;;;1.13;0.60;;;21.40;55.80;;;;;;4974620;28;89474;-61
2024/01/01 04:17:39;;;;;;;1.38;0.50;;;21.40;55.80;;;;;;4974959;28;88479;-61
2024/01/01 04:20:10;;;;;;;1.30;0.60;;;21.40;55.70;;;;;;4973862;28;89786;-60
2024/01/01 04:22:42;;;;;;;2.25;0.70;;;21.40;55.80;;;;;;4976455;28;88704;-61
2024/01/01 04:25:08;;;;;;;1.58;0.70;;;21.40;55.90;;;;;;4979392;28;88112;-61
2024/01/01 04:27:34;;;;;;;0.85;0.65;;;21.40;55.70;;;;;;4970220;28;87337;-61
2024/01/01 04:30:00;;;;;;;0.93;0.60;;;21.30;55.80;;;;;;4972683;28;86997;-61
2024/01/01 04:32:26;;;;;;;1.05;0.68;;;21.40;55.80;;;;;;4975247;28;87007;-61
2024/01/01 04:34:52;;;;;;;2.17;0.70;;;21.30;55.80;;;;;;4972210;28;88001;-61
2024/01/01 04:37:18;;;;;;;1.15;0.60;;;21.30;55.80;;;;;;4976842;28;87519;-61
2024/01/01 04:39:44;;;;;;;2.58;0.77;;;21.30;55.80;;;;;;4974069;28;87175;-60
2024/01/01 04:42:10;;;;;;;1.40;0.60;;;21.30;55.70;;;;;;4972585;28;90250;-60
2024/01/01 04:44:36;;;;;;;1.25;0.55;;;21.30;55.50;;;;;;4976794;28;88582;-61
2024/01/01 04:47:02;;;;;;;2.30;1.10;;;21.30;56.30;;;;;;4975860;28;87781;-60
2024/01/01 04:49:29;;;;;;;1.00;0.68;;;21.30;55.40;;;;;;4974896;28;87976;-61
2024/01/01 04:51:55;;;;;;;1.58;0.63;;;21.30;55.60;;;;;;4977184;28;90377;-62
2024/01/01 04:54:21;;;;;;;1.52;0.57;;;21.30;55.70;;;;;;4972444;28;88673;-61
2024/01/01 04:56:48;;;;;;;1.30;0.65;;;21.20;55.70;;;;;;4985390;28;87256;-61
2024/01/01 04:59:14;;;;;;;0.70;0.60;;;21.20;55.70;;;;;;4974647;28;89348;-60
2024/01/01 05:01:39;;;;;;;0.95;0.63;;;21.20;55.70;;;;;;4973970;28;89116;-60
2024/01/01 05:04:06;;;;;;;1.55;0.75;;;21.30;55.80;;;;;;4993483;28;88596;-61
2024/01/01 05:06:44;;;;;;;1.38;0.60;;;21.20;55.70;;;;;;4973332;28;88545;-61
2024/01/01 05:09:10;;;;;;;1.23;0.60;;;21.20;55.70;;;;;;4969903;28;87887;-60
2024/01/01 05:11:40;;;;;;;1.38;0.70;;;21.20;55.70;;;;;;4975984;28;87882;-61
2024/01/01 05:14:06;;;;;;;1.15;0.73;;;21.20;55.60;;;;;;4974738;28;87095;-60
2024/01/01 05:16:35;;;;;;;2.13;0.93;;;21.20;55.60;;;;;;4969987;28;87397;-62
2024/01/01 05:19:01;;;;;;;1.20;0.73;;;21.20;55.70;;;;;;4978977;28;87494;-61
2024/01/01 05:21:28;;;;;;;2.22;0.60;;;21.20;55.70;;;;;;4974977;28;89248;-61
2024/01/01 05:23:54;;;;;;;1.15;0.75;;;21.20;55.80;;;;;;4975637;28;87401;-61
2024/01/01 05:26:20;;;;;;;1.52;0.55;;;21.20;55.80;;;;;;4972682;28;87364;-60
2024/01/01 05:28:45;;;;;;;0.98;0.60;;;21.20;55.80;;;;;;4968436;28;87886;-60
2024/01/01 05:31:11;;;;;;;3.38;0.82;;;21.20;55.80;;;;;;4974356;28;88897;-60
2024/01/01 05:33:37;;;;;;;0.93;0.68;;;21.10;55.70;;;;;;4974988;28;89358;-60
2024/01/01 05:36:10;;;;;;;1.83;0.80;;;21.20;55.70;;;;;;4994740;28;87693;-61
2024/01/01 05:38:38;;;;;;;1.08;0.52;;;21.10;55.70;;;;;;4971206;28;88126;-61
2024/01/01 05:44:26;;;;;;;1.05;0.50;;;21.10;55.70;;;;;;4972486;28;87317;-61
2024/01/01 05:46:52;;;;;;;1.23;0.70;;;21.10;55.90;;;;;;4973905;28;87497;-61
2024/01/01 05:49:18;;;;;;;1.98;0.95;;;21.10;55.60;;;;;;4981051;28;86638;-60
2024/01/01 05:51:47;;;;;;;1.95;0.85;;;21.10;54.00;;;;;;4971870;28;88246;-60
2024/01/01 05:54:12;;;;;;;3.10;1.27;;;21.10;53.40;;;;;;4978357;28;88452;-61
2024/01/01 05:56:40;;;;;;;2.63;0.90;;;21.10;53.40;;;;;;4969914;28;87902;-60
2024/01/01 05:59:06;;;;;;;2.33;0.80;;;21.10;53.70;;;;;;4969617;28;88088;-62
2024/01/01 06:01:31;;;;;;;2.03;0.82;;;21.10;53.70;;;;;;4974588;28;87760;-61
2024/01/01 06:03:57;;;;;;;2.80;1.15;;;21.10;53.90;;;;;;4976675;28;87747;-61
2024/01/01 06:06:26;;;;;;;1.58;0.82;;;21.10;53.60;;;;;;4975244;28;87606;-61
2024/01/01 06:08:52;;;;;;;1.58;0.77;;;21.10;53.50;;;;;;4972481;28;87285;-61
2024/01/01 06:11:19;;;;;;;3.13;0.90;;;21.10;53.60;;;;;;4973322;28;88224;-60
2024/01/01 06:13:45;;;;;;;2.08;0.85;;;21.10;53.50;;;;;;4973910;28;89396;-61
2024/01/01 06:16:13;;;;;;;3.08;0.90;;;21.10;53.40;;;;;;4976969;28;87578;-60
2024/01/01 06:18:38;;;;;;;3.05;1.25;;;21.00;53.40;;;;;;4972725;28;87510;-60
2024/01/01 06:21:04;;;;;;;2.65;0.85;;;21.10;53.40;;;;;;4988851;28;88760;-61
2024/01/01 06:23:30;;;;;;;4.78;1.35;;;21.00;53.20;;;;;;4976462;28;90337;-61
2024/01/01 06:25:57;;;;;;;1.73;0.68;;;21.00;53.50;;;;;;4984560;28;87711;-61
2024/01/01 06:28:22;;;;;;;1.33;0.82;;;21.00;53.20;;;;;;4993773;28;90606;-62
2024/01/01 06:30:48;;;;;;;2.70;0.80;;;21.00;53.30;;;;;;4979654;28;88041;-61
2024/01/01 06:33:14;;;;;;;1.75;0.95;;;21.00;53.50;;;;;;4978449;28;88151;-61
2024/01/01 06:35:41;;;;;;;4.55;1.35;;;21.00;53.20;;;;;;4976102;28;87748;-61
2024/01/01 06:41:29;;;;;;;2.25;1.15;;;20.90;53.30;;;;;;4970712;28;87530;-60
2024/01/01 06:43:55;;;;;;;2.67;1.25;;;21.00;53.20;;;;;;4978205;28;88737;-60
2024/01/01 06:46:21;;;;;;;1.15;0.70;;;20.90;53.30;;;;;;4982648;28;88510;-61
2024/01/01 06:48:47;;;;;;;3.53;1.38;;;20.90;53.30;;;;;;4976554;28;89978;-61
2024/01/01 06:51:14;;;;;;;2.08;0.95;;;21.00;53.70;;;;;;4973717;28;88091;-61
2024/01/01 06:53:39;;;;;;;2.85;0.90;;;20.90;53.70;;;;;;4990767;28;89542;-61
2024/01/01 06:56:05;;;;;;;3.42;0.75;;;20.90;53.70;;;;;;4969880;28;87955;-61
2024/01/01 06:58:31;;;;;;;1.95;1.20;;;20.90;53.80;;;;;;4976826;28;87353;-60
2024/01/01 07:00:56;;;;;;;1.73;1.00;;;21.00;54.10;;;;;;4980239;28;88954;-62
2024/01/01 07:03:22;;;;;;;14.23;3.08;;;21.00;54.30;;;;;;4978041;28;87468;-60
2024/01/01 07:05:48;;;;;;;42.88;9.13;;;21.00;54.20;;;;;;4982857;28;87476;-61
2024/01/01 07:08:13;;;;;;;22.30;4.45;;;21.00;54.10;;;;;;4977915;28;87492;-61
2024/01/01 07:10:40;;;;;;;18.40;4.82;;;21.00;54.10;;;;;;4980020;28;89285;-61
2024/01/01 07:13:07;;;;;;;19.85;3.95;;;21.10;54.30;;;;;;4977421;28;91765;-61
2024/01/01 07:15:33;;;;;;;12.90;4.53;;;21.20;54.90;;;;;;4974117;28;87461;-61
2024/01/01 07:17:59;;;;;;;11.40;3.65;;;21.30;54.90;;;;;;4973565;28;88517;-60
2024/01/01 07:20:25;;;;;;;19.20;3.85;;;21.40;55.00;;;;;;4978152;28;87802;-62
2024/01/01 07:22:51;;;;;;;20.95;4.57;;;21.50;54.80;;;;;;4969773;28;89089;-61
2024/01/01 07:25:16;;;;;;;14.07;3.38;;;21.60;54.80;;;;;;4976571;28;87380;-63
2024/01/01 07:27:43;;;;;;;12.07;3.08;;;21.60;54.80;;;;;;4978230;28;87186;-61
2024/01/01 07:30:09;;;;;;;18.83;3.45;;;21.70;54.80;;;;;;4978397;28;88473;-61
2024/01/01 07:32:35;;;;;;;17.05;3.90;;;21.80;54.90;;;;;;4970937;28;87896;-62
2024/01/01 07:35:00;;;;;;;17.83;3.53;;;21.80;54.60;;;;;;4976737;28;88596;-60
2024/01/01 07:37:26;;;;;;;14.07;3.22;;;21.80;53.70;;;;;;4975087;28;87434;-61
2024/01/01 07:39:52;;;;;;;14.25;3.95;;;21.90;53.60;;;;;;4976570;28;92397;-62
2024/01/01 07:42:18;;;;;;;9.73;3.33;;;21.90;53.10;;;;;;4972645;28;89181;-62
2024/01/01 07:44:44;;;;;;;14.30;3.55;;;22.00;53.60;;;;;;4989644;28;87593;-62
2024/01/01 07:47:12;;;;;;;12.40;3.35;;;22.00;53.40;;;;;;4980520;28;88109;-61
2024/01/01 07:49:37;;;;;;;10.98;3.17;;;22.10;53.40;;;;;;4974230;28;88882;-62
2024/01/01 07:52:03;;;;;;;10.93;3.22;;;22.10;53.20;;;;;;4971953;28;89949;-61
2024/01/01 07:54:30;;;;;;;10.93;3.15;;;22.10;53.10;;;;;;4968452;28;88213;-62
2024/01/01 07:56:56;;;;;;;11.63;2.85;;;22.10;53.40;;;;;;4975958;28;87413;-61
2024/01/01 07:59:22;;;;;;;9.88;2.53;;;22.20;53.50;;;;;;4970670;28;90566;-61
2024/01/01 08:01:49;;;;;;;10.35;2.83;;;22.20;53.60;;;;;;4973957;28;89471;-61
2024/01/01 08:04:14;;;;;;;11.80;3.03;;;22.20;53.60;;;;;;4976755;28;87167;-62
2024/01/01 08:06:40;;;;;;;8.50;2.83;;;22.20;53.40;;;;;;4974735;28;87596;-61
2024/01/01 08:09:06;;;;;;;10.05;2.58;;;22.20;53.50;;;;;;4977662;28;88626;-61
2024/01/01 08:11:31;;;;;;;16.25;3.00;;;22.20;53.40;;;;;;4972823;28;87283;-61
2024/01/01 08:13:58;;;;;;;7.00;2.22;;;22.20;53.60;;;;;;4974200;28;87661;-61
2024/01/01 08:16:24;;;;;;;11.70;2.70;;;22.30;53.60;;;;;;4979358;28;86771;-61
2024/01/01 08:18:52;;;;;;;7.75;2.35;;;22.30;53.40;;;;;;4971050;28;88237;-61
2024/01/01 08:21:18;;;;;;;7.85;2.63;;;22.30;53.60;;;;;;4969682;28;87952;-61
2024/01/01 08:23:44;;;;;;;6.45;2.45;;;22.30;53.70;;;;;;4976617;28;88661;-61
2024/01/01 08:26:10;;;;;;;6.68;2.70;;;22.30;53.50;;;;;;4977647;28;87696;-61
2024/01/01 08:28:36;;;;;;;8.98;2.08;;;22.30;53.50;;;;;;4977718;28;88929;-61
2024/01/01 08:31:01;;;;;;;9.73;2.25;;;22.40;53.50;;;;;;4982899;28;87975;-61
2024/01/01 08:33:28;;;;;;;7.80;2.17;;;22.40;53.60;;;;;;4973137;28;88073;-61
2024/01/01 08:35:55;;;;;;;7.43;2.63;;;22.40;52.90;;;;;;4970884;28;87458;-61
2024/01/01 08:38:21;;;;;;;6.00;1.95;;;22.40;53.20;;;;;;4968461;28;89684;-61
2024/01/01 08:40:47;;;;;;;5.15;1.92;;;22.40;53.10;;;;;;4974058;28;87875;-61
2024/01/01 08:43:13;;;;;;;8.07;2.38;;;22.40;53.10;;;;;;4971091;28;87953;-62
2024/01/01 08:45:39;;;;;;;8.80;3.28;;;22.40;53.00;;;;;;4972252;28;87498;-61
2024/01/01 08:48:05;;;;;;;5.90;2.10;;;22.40;53.10;;;;;;4972448;28;88666;-61
2024/01/01 08:50:32;;;;;;;4.88;2.35;;;22.40;53.10;;;;;;4972857;28;89739;-61
2024/01/01 08:52:57;;;;;;;5.43;2.22;;;22.40;53.20;;;;;;4975284;28;88010;-61
2024/01/01 08:55:25;;;;;;;6.40;2.78;;;22.40;53.40;;;;;;4979893;28;87553;-61
2024/01/01 08:57:52;;;;;;;5.65;2.67;;;22.40;53.80;;;;;;4974820;28;89263;-61
2024/01/01 09:00:18;;;;;;;8.38;2.90;;;22.40;53.90;;;;;;4975435;28;87683;-61
2024/01/01 09:02:44;;;;;;;4.75;2.35;;;22.40;54.40;;;;;;4974480;28;87714;-61
2024/01/01 09:05:09;;;;;;;8.52;2.10;;;22.40;54.10;;;;;;4978430;28;86940;-62
2024/01/01 09:07:36;;;;;;;6.05;2.50;;;22.50;54.40;;;;;;4975370;28;89280;-63
2024/01/01 09:10:04;;;;;;;12.30;3.05;;;22.50;54.40;;;;;;4973059;28;88562;-61
2024/01/01 09:12:30;;;;;;;6.55;2.50;;;22.50;54.90;;;;;;4977066;28;88472;-62
2024/01/01 09:14:57;;;;;;;6.43;2.53;;;22.50;55.70;;;;;;4973423;28;88118;-61
2024/01/01 09:17:23;;;;;;;7.40;2.53;;;22.50;55.90;;;;;;4972432;28;89242;-61
2024/01/01 09:19:48;;;;;;;6.80;2.38;;;22.50;56.30;;;;;;4976457;28;87990;-62
2024/01/01 09:22:16;;;;;;;8.80;2.65;;;22.50;55.80;;;;;;4975149;28;87239;-62
2024/01/01 09:24:42;;;;;;;5.32;2.72;;;22.60;55.00;;;;;;4972171;28;88024;-62
2024/01/01 09:27:09;;;;;;;5.72;2.10;;;22.60;53.90;;;;;;4972051;28;88744;-62
2024/01/01 09:29:35;;;;;;;8.38;2.38;;;22.50;52.90;;;;;;4978731;28;87538;-63
2024/01/01 09:32:01;;;;;;;4.07;1.75;;;22.50;52.60;;;;;;4975614;28;87713;-62
2024/01/01 09:34:26;;;;;;;7.47;2.80;;;22.60;53.30;;;;;;4972951;28;87183;-61
2024/01/01 09:36:52;;;;;;;9.23;2.85;;;22.50;53.10;;;;;;4974411;28;88752;-61
2024/01/01 09:39:20;;;;;;;10.05;2.22;;;22.50;53.60;;;;;;4994609;28;88985;-62
2024/01/01 09:41:46;;;;;;;7.63;2.15;;;22.60;54.20;;;;;;4990592;28;88064;-63
2024/01/01 09:44:12;;;;;;;7.65;2.25;;;22.70;54.20;;;;;;4974497;28;88191;-63
2024/01/01 09:46:39;;;;;;;4.05;2.10;;;22.80;54.10;;;;;;4977650;28;88227;-62
2024/01/01 09:49:05;;;;;;;6.55;2.13;;;22.80;53.80;;;;;;4992151;28;90234;-62
2024/01/01 09:51:36;;;;;;;4.82;2.08;;;22.80;54.40;;;;;;4974723;28;87683;-62
2024/01/01 09:54:04;;;;;;;5.07;2.05;;;22.90;53.70;;;;;;4987269;28;87909;-62
2024/01/01 09:56:29;;;;;;;8.48;2.40;;;23.00;53.30;;;;;;4975183;28;87752;-63
2024/01/01 09:58:57;;;;;;;4.80;1.95;;;23.00;53.00;;;;;;4976851;28;87893;-62
2024/01/01 10:01:23;;;;;;;4.32;1.88;;;23.00;53.00;;;;;;4978742;28;89328;-61
2024/01/01 10:04:03;;;;;;;5.13;1.83;;;23.10;53.20;;;;;;4979487;28;87241;-63
2024/01/01 10:07:00;;;;;;;4.00;1.67;;;23.10;52.50;;;;;;4987832;28;88308;-62
2024/01/01 10:09:26;;;;;;;6.47;2.85;;;23.20;52.20;;;;;;4977424;28;88086;-62
2024/01/01 10:11:52;;;;;;;6.47;1.77;;;23.30;51.80;;;;;;4977385;28;87372;-61
2024/01/01 10:14:18;;;;;;;5.07;2.00;;;23.30;51.50;;;;;;4988232;28;87264;-61
2024/01/01 10:16:45;;;;;;;5.88;2.20;;;23.40;51.40;;;;;;4975528;28;88223;-61
2024/01/01 10:19:13;;;;;;;6.18;2.28;;;23.40;51.30;;;;;;4974790;28;88332;-61
2024/01/01 10:21:40;;;;;;;5.20;2.30;;;23.40;52.10;;;;;;4977113;28;87405;-62
2024/01/01 10:24:13;;;;;;;7.95;2.30;;;23.50;49.20;;;;;;4977698;28;87312;-62
2024/01/01 10:26:43;;;;;;;7.45;2.30;;;23.40;48.40;;;;;;4977309;28;88916;-62
2024/01/01 10:29:13;;;;;;;5.03;2.03;;;23.40;50.20;;;;;;4979820;28;89438;-62
2024/01/01 10:31:47;;;;;;;3.55;1.77;;;23.50;50.60;;;;;;4975970;28;87567;-63
2024/01/01 10:34:13;;;;;;;6.53;2.13;;;23.60;50.80;;;;;;4983933;28;87390;-62
2024/01/01 10:36:43;;;;;;;3.53;1.58;;;23.60;50.50;;;;;;4972925;28;88195;-62
2024/01/01 10:39:12;;;;;;;5.57;1.80;;;23.60;50.50;;;;;;4977458;28;87466;-62
2024/01/01 10:41:38;;;;;;;;;;;23.60;51.40;;;;;;4975226;28;88005;-62
2024/01/01 10:44:08;;;;;;;4.95;1.40;;;23.60;50.70;;;;;;5010859;28;87878;-63
2024/01/01 10:46:37;;;;;;;2.90;1.98;;;23.60;50.90;;;;;;4995099;28;89642;-62
2024/01/01 10:49:11;;;;;;;4.90;1.58;;;23.70;51.00;;;;;;4972381;28;89246;-62
2024/01/01 10:52:13;;;;;;;10.40;2.63;;;23.70;50.50;;;;;;4970054;28;88344;-61
2024/01/01 10:54:54;;;;;;;34.97;7.38;;;23.70;50.70;;;;;;4961356;28;87871;-61
2024/01/01 10:57:29;;;;;;;39.17;8.52;;;23.70;50.20;;;;;;4958656;28;88331;-62
2024/01/01 11:00:13;;;;;;;47.13;9.88;;;23.70;49.80;;;;;;4959023;28;89026;-61
2024/01/01 11:02:41;;;;;;;58.22;12.98;;;23.80;49.00;;;;;;4961789;28;87676;-61
2024/01/01 11:05:11;;;;;;;37.75;13.10;;;23.90;48.20;;;;;;4974452;28;87321;-61
2024/01/01 11:07:52;;;;;;;51.35;13.48;;;23.90;47.80;;;;;;4974350;28;88209;-60
2024/01/01 11:10:42;;;;;;;51.40;13.32;;;24.00;47.40;;;;;;4980397;28;87565;-61
2024/01/01 11:13:31;;;;;;;48.78;14.20;;;24.00;47.10;;;;;;4973010;28;89140;-62
2024/01/01 11:16:04;;;;;;;57.15;15.43;;;24.00;47.00;;;;;;4983971;28;90371;-61
2024/01/01 11:18:35;;;;;;;46.05;14.77;;;24.10;47.30;;;;;;4978317;28;89110;-62
2024/01/01 11:21:02;;;;;;;43.15;12.38;;;24.10;47.40;;;;;;4974030;28;90673;-61
2024/01/01 11:23:45;;;;;;;41.25;11.80;;;24.10;47.50;;;;;;4989125;28;88819;-61
2024/01/01 11:26:22;;;;;;;31.30;8.90;;;24.10;47.40;;;;;;4974044;28;88026;-61
2024/01/01 11:28:48;;;;;;;35.00;11.20;;;24.10;47.50;;;;;;4974526;28;90598;-61
2024/01/01 11:31:14;;;;;;;29.73;9.90;;;24.10;46.60;;;;;;4975763;28;88526;-62
2024/01/01 11:33:40;;;;;;;35.08;10.30;;;24.20;46.50;;;;;;4979238;28;87283;-61
2024/01/01 11:36:09;;;;;;;27.92;9.15;;;24.20;46.50;;;;;;4975956;28;87068;-62
2024/01/01 11:38:35;;;;;;;27.08;9.68;;;24.30;46.80;;;;;;4974649;28;88577;-61
2024/01/01 11:41:01;;;;;;;26.52;8.38;;;24.20;47.00;;;;;;4974938;28;87542;-61
2024/01/01 11:43:27;;;;;;;27.27;9.20;;;24.30;47.20;;;;;;4976379;28;88786;-62
2024/01/01 11:45:57;;;;;;;28.48;8.95;;;24.20;47.30;;;;;;4973710;28;87800;-62
2024/01/01 11:48:23;;;;;;;20.75;7.25;;;24.20;47.60;;;;;;4971746;28;88760;-61
2024/01/01 11:50:50;;;;;;;19.75;6.03;;;24.20;46.50;;;;;;4988903;28;90849;-61
2024/01/01 11:53:16;;;;;;;11.98;4.70;;;24.20;45.40;;;;;;4974114;28;87256;-61
2024/01/01 11:55:42;;;;;;;17.05;5.65;;;24.20;45.50;;;;;;4976539;28;87306;-61
2024/01/01 11:58:08;;;;;;;15.10;5.32;;;24.10;45.40;;;;;;4962664;28;88171;-61
2024/01/01 12:00:38;;;;;;;14.23;4.85;;;24.10;45.50;;;;;;4991708;28;89934;-61
2024/01/01 12:03:04;;;;;;;24.23;8.55;;;24.00;45.50;;;;;;4959649;28;88285;-61
2024/01/01 12:05:31;;;;;;;19.92;7.25;;;24.00;45.80;;;;;;4954953;28;87451;-61
2024/01/01 12:07:56;;;;;;;18.70;6.90;;;24.00;46.40;;;;;;4950554;28;89613;-62
2024/01/01 12:10:24;;;;;;;26.30;8.13;;;24.00;45.90;;;;;;4966384;28;91000;-61
2024/01/01 12:12:59;;;;;;;21.75;7.03;;;23.90;45.80;;;;;;4971473;28;88195;-61
2024/01/01 12:15:30;;;;;;;21.33;6.93;;;23.90;46.00;;;;;;4969724;28;87462;-61
2024/01/01 12:17:56;;;;;;;13.32;4.80;;;23.90;45.80;;;;;;4965773;28;89974;-61
2024/01/01 12:20:25;;;;;;;16.38;6.07;;;23.90;46.30;;;;;;4982504;28;87463;-61
2024/01/01 12:22:52;;;;;;;;;;;23.90;44.70;;;;;;4977845;28;88009;-61
2024/01/01 12:25:19;;;;;;;12.48;4.30;;;23.90;45.40;;;;;;4975632;28;87290;-61
2024/01/01 12:28:03;;;;;;;13.50;5.00;;;23.90;45.20;;;;;;4975160;28;88233;-60
2024/01/01 12:30:30;;;;;;;14.43;4.50;;;23.90;43.80;;;;;;4987871;28;88437;-61
2024/01/01 12:32:57;;;;;;;17.20;5.63;;;23.90;44.30;;;;;;4969699;28;88602;-60
2024/01/01 12:35:23;;;;;;;14.63;4.35;;;23.90;43.80;;;;;;4976001;28;87535;-61
2024/01/01 12:41:17;;;;;;;10.05;4.03;;;23.90;43.80;;;;;;4976878;28;87721;-61
2024/01/01 12:43:43;;;;;;;12.40;3.67;;;24.00;43.80;;;;;;4979093;28;87324;-61
2024/01/01 12:46:08;;;;;;;13.85;4.13;;;24.00;43.50;;;;;;4970269;28;87914;-61
2024/01/01 12:48:35;;;;;;;12.30;4.38;;;24.10;43.10;;;;;;4971144;28;91042;-61
2024/01/01 12:51:00;;;;;;;12.95;4.07;;;24.10;42.90;;;;;;4972223;28;88686;-61
2024/01/01 12:53:27;;;;;;;9.48;3.85;;;24.10;42.90;;;;;;4974253;28;87462;-61
2024/01/01 12:55:52;;;;;;;9.15;3.35;;;24.10;44.00;;;;;;4974661;28;87369;-61
2024/01/01 12:58:19;;;;;;;11.57;4.10;;;24.20;43.60;;;;;;4967995;28;89243;-63